sensor_id;sensor_type;location;lat;lon;timestamp;temperature;humidity
11597;DHT22;5854;48.072;16.286;2023-05-10T00:02:03;13.80;50.50
11597;DHT22;5854;48.072;16.286;2023-05-10T00:04:32;13.80;49.70
11597;DHT22;5854;48.072;16.286;2023-05-10T00:06:59;13.70;51.80
11597;DHT22;5854;48.072;16.286;2023-05-10T00:09:26;13.90;50.40
11597;DHT22;5854;48.072;16.286;2023-05-10T00:11:53;13.50;48.50
11597;DHT22;5854;48.072;16.286;2023-05-10T00:14:20;13.60;50.40
11597;DHT22;5854;48.072;16.286;2023-05-10T00:16:47;13.40;50.70
11597;DHT22;5854;48.072;16.286;2023-05-10T00:19:14;13.50;49.70
11597;DHT22;5854;48.072;16.286;2023-05-10T00:21:42;13.50;51.90
11597;DHT22;5854;48.072;16.286;2023-05-10T00:24:09;13.60;49.80
11597;DHT22;5854;48.072;16.286;2023-05-10T00:26:37;13.50;50.30
11597;DHT22;5854;48.072;16.286;2023-05-10T00:29:04;13.30;52.60
11597;DHT22;5854;48.072;16.286;2023-05-10T00:31:31;13.30;50.20
11597;DHT22;5854;48.072;16.286;2023-05-10T00:33:58;13.40;52.40
11597;DHT22;5854;48.072;16.286;2023-05-10T00:36:25;13.40;52.40
11597;DHT22;5854;48.072;16.286;2023-05-10T00:38:54;13.60;50.50
11597;DHT22;5854;48.072;16.286;2023-05-10T00:41:21;13.40;51.40
11597;DHT22;5854;48.072;16.286;2023-05-10T00:43:48;13.40;50.80
11597;DHT22;5854;48.072;16.286;2023-05-10T00:46:15;13.50;51.70
11597;DHT22;5854;48.072;16.286;2023-05-10T00:48:44;13.30;51.40
11597;DHT22;5854;48.072;16.286;2023-05-10T00:51:11;13.20;50.30
11597;DHT22;5854;48.072;16.286;2023-05-10T00:53:39;13.20;52.80
11597;DHT22;5854;48.072;16.286;2023-05-10T00:56:08;13.40;52.30
11597;DHT22;5854;48.072;16.286;2023-05-10T00:58:36;13.40;50.20
11597;DHT22;5854;48.072;16.286;2023-05-10T01:01:04;13.20;49.90
11597;DHT22;5854;48.072;16.286;2023-05-10T01:03:32;13.20;52.90
11597;DHT22;5854;48.072;16.286;2023-05-10T01:06:00;13.30;52.60
11597;DHT22;5854;48.072;16.286;2023-05-10T01:08:27;13.30;51.00
11597;DHT22;5854;48.072;16.286;2023-05-10T01:10:55;13.10;51.90
11597;DHT22;5854;48.072;16.286;2023-05-10T01:13:31;13.00;50.30
11597;DHT22;5854;48.072;16.286;2023-05-10T01:16:00;13.00;52.70
11597;DHT22;5854;48.072;16.286;2023-05-10T01:18:29;13.10;50.60
11597;DHT22;5854;48.072;16.286;2023-05-10T01:21:07;13.00;51.80
11597;DHT22;5854;48.072;16.286;2023-05-10T01:27:32;13.00;51.90
11597;DHT22;5854;48.072;16.286;2023-05-10T01:30:52;13.00;52.10
11597;DHT22;5854;48.072;16.286;2023-05-10T01:33:44;13.00;53.30
11597;DHT22;5854;48.072;16.286;2023-05-10T01:36:19;13.00;51.90
11597;DHT22;5854;48.072;16.286;2023-05-10T01:38:57;13.00;52.30
11597;DHT22;5854;48.072;16.286;2023-05-10T01:41:36;13.00;51.20
11597;DHT22;5854;48.072;16.286;2023-05-10T01:44:13;13.00;52.70
11597;DHT22;5854;48.072;16.286;2023-05-10T01:46:47;12.90;50.80
11597;DHT22;5854;48.072;16.286;2023-05-10T01:49:22;12.70;52.50
11597;DHT22;5854;48.072;16.286;2023-05-10T01:51:53;12.80;52.80
11597;DHT22;5854;48.072;16.286;2023-05-10T01:54:23;12.80;51.40
11597;DHT22;5854;48.072;16.286;2023-05-10T01:56:56;12.70;53.40
11597;DHT22;5854;48.072;16.286;2023-05-10T01:59:30;12.80;51.70
11597;DHT22;5854;48.072;16.286;2023-05-10T02:02:02;12.80;52.20
11597;DHT22;5854;48.072;16.286;2023-05-10T02:04:35;12.70;51.00
11597;DHT22;5854;48.072;16.286;2023-05-10T02:07:05;12.60;52.50
11597;DHT22;5854;48.072;16.286;2023-05-10T02:09:33;12.60;52.60
11597;DHT22;5854;48.072;16.286;2023-05-10T02:12:03;12.50;51.90
11597;DHT22;5854;48.072;16.286;2023-05-10T02:14:35;12.60;53.20
11597;DHT22;5854;48.072;16.286;2023-05-10T02:17:04;12.50;51.00
11597;DHT22;5854;48.072;16.286;2023-05-10T02:19:34;12.60;52.50
11597;DHT22;5854;48.072;16.286;2023-05-10T02:22:03;12.70;53.10
11597;DHT22;5854;48.072;16.286;2023-05-10T02:24:31;12.70;51.90
11597;DHT22;5854;48.072;16.286;2023-05-10T02:27:00;12.40;53.50
11597;DHT22;5854;48.072;16.286;2023-05-10T02:29:30;12.30;52.80
11597;DHT22;5854;48.072;16.286;2023-05-10T02:31:58;12.20;53.20
11597;DHT22;5854;48.072;16.286;2023-05-10T02:34:27;12.40;51.80
11597;DHT22;5854;48.072;16.286;2023-05-10T02:36:56;12.20;53.30
11597;DHT22;5854;48.072;16.286;2023-05-10T02:39:24;12.30;52.50
11597;DHT22;5854;48.072;16.286;2023-05-10T02:41:52;12.30;53.90
11597;DHT22;5854;48.072;16.286;2023-05-10T02:44:21;12.40;52.50
11597;DHT22;5854;48.072;16.286;2023-05-10T02:46:49;12.40;52.40
11597;DHT22;5854;48.072;16.286;2023-05-10T02:49:18;12.20;52.80
11597;DHT22;5854;48.072;16.286;2023-05-10T02:51:49;12.20;53.60
11597;DHT22;5854;48.072;16.286;2023-05-10T02:54:22;12.20;52.50
11597;DHT22;5854;48.072;16.286;2023-05-10T02:56:55;12.10;52.70
11597;DHT22;5854;48.072;16.286;2023-05-10T02:59:24;12.10;54.30
11597;DHT22;5854;48.072;16.286;2023-05-10T03:01:51;12.00;54.50
11597;DHT22;5854;48.072;16.286;2023-05-10T03:04:18;11.90;53.80
11597;DHT22;5854;48.072;16.286;2023-05-10T03:06:45;12.10;54.70
11597;DHT22;5854;48.072;16.286;2023-05-10T03:09:13;12.00;52.70
11597;DHT22;5854;48.072;16.286;2023-05-10T03:11:53;12.20;53.00
11597;DHT22;5854;48.072;16.286;2023-05-10T03:14:33;11.90;53.70
11597;DHT22;5854;48.072;16.286;2023-05-10T03:17:10;12.00;53.40
11597;DHT22;5854;48.072;16.286;2023-05-10T03:19:45;12.00;53.30
11597;DHT22;5854;48.072;16.286;2023-05-10T03:22:20;11.90;54.50
11597;DHT22;5854;48.072;16.286;2023-05-10T03:24:51;11.80;53.70
11597;DHT22;5854;48.072;16.286;2023-05-10T03:27:22;11.90;53.50
11597;DHT22;5854;48.072;16.286;2023-05-10T03:29:51;11.60;54.40
11597;DHT22;5854;48.072;16.286;2023-05-10T03:32:19;11.60;54.80
11597;DHT22;5854;48.072;16.286;2023-05-10T03:34:46;11.70;52.60
11597;DHT22;5854;48.072;16.286;2023-05-10T03:37:13;11.50;54.50
11597;DHT22;5854;48.072;16.286;2023-05-10T03:39:40;11.50;55.30
11597;DHT22;5854;48.072;16.286;2023-05-10T03:42:07;11.70;53.90
11597;DHT22;5854;48.072;16.286;2023-05-10T03:44:38;11.50;52.80
11597;DHT22;5854;48.072;16.286;2023-05-10T03:47:05;11.60;54.60
11597;DHT22;5854;48.072;16.286;2023-05-10T03:49:33;11.70;55.10
11597;DHT22;5854;48.072;16.286;2023-05-10T03:52:00;11.80;53.90
11597;DHT22;5854;48.072;16.286;2023-05-10T03:54:27;11.80;53.90
11597;DHT22;5854;48.072;16.286;2023-05-10T03:56:54;11.70;54.20
11597;DHT22;5854;48.072;16.286;2023-05-10T03:59:21;11.60;53.80
11597;DHT22;5854;48.072;16.286;2023-05-10T04:01:49;11.60;55.00
11597;DHT22;5854;48.072;16.286;2023-05-10T04:04:16;11.60;53.70
11597;DHT22;5854;48.072;16.286;2023-05-10T04:06:44;11.50;54.50
11597;DHT22;5854;48.072;16.286;2023-05-10T04:09:11;11.50;55.00
11597;DHT22;5854;48.072;16.286;2023-05-10T04:11:38;11.70;54.90
11597;DHT22;5854;48.072;16.286;2023-05-10T04:14:05;11.60;54.30
11597;DHT22;5854;48.072;16.286;2023-05-10T04:16:32;11.70;55.00
11597;DHT22;5854;48.072;16.286;2023-05-10T04:19:00;11.70;55.00
11597;DHT22;5854;48.072;16.286;2023-05-10T04:21:28;11.50;55.20
11597;DHT22;5854;48.072;16.286;2023-05-10T04:23:55;11.70;55.20
11597;DHT22;5854;48.072;16.286;2023-05-10T04:26:23;11.80;54.80
11597;DHT22;5854;48.072;16.286;2023-05-10T04:28:50;11.80;54.80
11597;DHT22;5854;48.072;16.286;2023-05-10T04:31:17;11.90;54.70
11597;DHT22;5854;48.072;16.286;2023-05-10T04:33:44;11.80;54.80
11597;DHT22;5854;48.072;16.286;2023-05-10T04:38:54;12.00;54.60
11597;DHT22;5854;48.072;16.286;2023-05-10T04:41:31;12.00;54.90
11597;DHT22;5854;48.072;16.286;2023-05-10T04:43:58;11.60;55.80
11597;DHT22;5854;48.072;16.286;2023-05-10T04:46:26;11.40;57.20
11597;DHT22;5854;48.072;16.286;2023-05-10T04:49:01;11.40;57.20
11597;DHT22;5854;48.072;16.286;2023-05-10T05:07:18;12.10;54.90
11597;DHT22;5854;48.072;16.286;2023-05-10T05:09:50;12.10;55.50
11597;DHT22;5854;48.072;16.286;2023-05-10T05:12:23;12.00;56.60
11597;DHT22;5854;48.072;16.286;2023-05-10T05:17:18;12.00;56.10
11597;DHT22;5854;48.072;16.286;2023-05-10T05:25:17;12.30;56.00
11597;DHT22;5854;48.072;16.286;2023-05-10T05:32:55;13.20;55.00
11597;DHT22;5854;48.072;16.286;2023-05-10T05:35:24;13.00;55.10
11597;DHT22;5854;48.072;16.286;2023-05-10T05:40:46;12.70;56.70
11597;DHT22;5854;48.072;16.286;2023-05-10T05:51:04;13.40;55.20
11597;DHT22;5854;48.072;16.286;2023-05-10T06:19:48;14.50;51.30
11597;DHT22;5854;48.072;16.286;2023-05-10T06:22:09;15.10;50.40
11597;DHT22;5854;48.072;16.286;2023-05-10T06:24:45;15.80;47.70
11597;DHT22;5854;48.072;16.286;2023-05-10T06:27:15;16.30;46.50
11597;DHT22;5854;48.072;16.286;2023-05-10T06:30:01;17.00;45.70
11597;DHT22;5854;48.072;16.286;2023-05-10T06:35:31;17.40;43.30
11597;DHT22;5854;48.072;16.286;2023-05-10T06:38:14;17.80;42.40
11597;DHT22;5854;48.072;16.286;2023-05-10T08:42:30;17.90;40.80
11597;DHT22;5854;48.072;16.286;2023-05-10T08:44:59;18.00;39.40
11597;DHT22;5854;48.072;16.286;2023-05-10T08:47:49;18.00;39.80
11597;DHT22;5854;48.072;16.286;2023-05-10T08:50:20;18.20;39.90
11597;DHT22;5854;48.072;16.286;2023-05-10T08:52:59;18.30;40.10
11597;DHT22;5854;48.072;16.286;2023-05-10T09:00:35;18.40;40.60
11597;DHT22;5854;48.072;16.286;2023-05-10T09:03:04;18.40;39.40
11597;DHT22;5854;48.072;16.286;2023-05-10T09:05:31;18.40;40.20
11597;DHT22;5854;48.072;16.286;2023-05-10T09:07:58;18.60;40.70
11597;DHT22;5854;48.072;16.286;2023-05-10T09:10:27;18.70;40.30
11597;DHT22;5854;48.072;16.286;2023-05-10T09:12:56;18.80;38.20
11597;DHT22;5854;48.072;16.286;2023-05-10T09:15:25;18.70;39.20
11597;DHT22;5854;48.072;16.286;2023-05-10T09:25:48;18.70;39.30
11597;DHT22;5854;48.072;16.286;2023-05-10T09:28:53;18.90;39.20
11597;DHT22;5854;48.072;16.286;2023-05-10T09:31:45;18.80;38.60
11597;DHT22;5854;48.072;16.286;2023-05-10T09:34:28;18.70;38.10
11597;DHT22;5854;48.072;16.286;2023-05-10T09:36:58;18.80;39.00
11597;DHT22;5854;48.072;16.286;2023-05-10T09:39:33;18.90;39.90
11597;DHT22;5854;48.072;16.286;2023-05-10T09:42:07;19.00;38.70
11597;DHT22;5854;48.072;16.286;2023-05-10T09:44:37;18.90;38.30
11597;DHT22;5854;48.072;16.286;2023-05-10T09:47:33;18.70;38.20
11597;DHT22;5854;48.072;16.286;2023-05-10T09:50:07;18.80;38.60
11597;DHT22;5854;48.072;16.286;2023-05-10T09:52:47;18.60;38.00
11597;DHT22;5854;48.072;16.286;2023-05-10T09:55:21;18.80;38.40
11597;DHT22;5854;48.072;16.286;2023-05-10T10:17:25;18.80;37.90
11597;DHT22;5854;48.072;16.286;2023-05-10T10:19:55;18.90;38.70
11597;DHT22;5854;48.072;16.286;2023-05-10T10:22:27;19.00;37.00
11597;DHT22;5854;48.072;16.286;2023-05-10T10:24:54;18.90;37.50
11597;DHT22;5854;48.072;16.286;2023-05-10T10:27:26;18.90;37.60
11597;DHT22;5854;48.072;16.286;2023-05-10T10:30:03;18.80;39.00
11597;DHT22;5854;48.072;16.286;2023-05-10T10:32:59;19.10;39.00
11597;DHT22;5854;48.072;16.286;2023-05-10T10:35:35;19.00;38.70
11597;DHT22;5854;48.072;16.286;2023-05-10T10:38:02;19.00;37.50
11597;DHT22;5854;48.072;16.286;2023-05-10T10:40:31;19.00;36.50
11597;DHT22;5854;48.072;16.286;2023-05-10T10:43:25;19.00;36.70
11597;DHT22;5854;48.072;16.286;2023-05-10T10:46:11;19.20;38.80
11597;DHT22;5854;48.072;16.286;2023-05-10T10:48:41;19.30;40.10
11597;DHT22;5854;48.072;16.286;2023-05-10T10:51:14;19.30;37.80
11597;DHT22;5854;48.072;16.286;2023-05-10T10:53:42;19.10;37.80
11597;DHT22;5854;48.072;16.286;2023-05-10T10:56:11;19.10;40.00
11597;DHT22;5854;48.072;16.286;2023-05-10T10:58:41;19.10;38.60
11597;DHT22;5854;48.072;16.286;2023-05-10T11:01:13;19.10;39.60
11597;DHT22;5854;48.072;16.286;2023-05-10T11:06:46;19.20;38.50
11597;DHT22;5854;48.072;16.286;2023-05-10T11:09:13;19.00;38.40
11597;DHT22;5854;48.072;16.286;2023-05-10T11:11:52;19.10;38.60
11597;DHT22;5854;48.072;16.286;2023-05-10T11:14:22;19.00;38.70
11597;DHT22;5854;48.072;16.286;2023-05-10T11:16:49;19.10;38.30
11597;DHT22;5854;48.072;16.286;2023-05-10T11:19:18;19.20;38.60
11597;DHT22;5854;48.072;16.286;2023-05-10T11:21:47;19.30;38.90
11597;DHT22;5854;48.072;16.286;2023-05-10T11:24:16;19.30;37.70
11597;DHT22;5854;48.072;16.286;2023-05-10T11:26:44;19.50;38.90
11597;DHT22;5854;48.072;16.286;2023-05-10T11:29:12;19.30;39.20
11597;DHT22;5854;48.072;16.286;2023-05-10T11:31:43;19.20;38.60
11597;DHT22;5854;48.072;16.286;2023-05-10T11:34:22;19.30;39.00
11597;DHT22;5854;48.072;16.286;2023-05-10T11:36:51;19.30;38.30
11597;DHT22;5854;48.072;16.286;2023-05-10T11:39:19;19.30;38.90
11597;DHT22;5854;48.072;16.286;2023-05-10T11:41:48;19.20;37.80
11597;DHT22;5854;48.072;16.286;2023-05-10T11:44:16;19.40;38.90
11597;DHT22;5854;48.072;16.286;2023-05-10T11:49:32;19.50;38.60
11597;DHT22;5854;48.072;16.286;2023-05-10T11:52:06;19.40;39.10
11597;DHT22;5854;48.072;16.286;2023-05-10T11:54:33;19.50;39.90
11597;DHT22;5854;48.072;16.286;2023-05-10T11:57:01;19.40;38.70
11597;DHT22;5854;48.072;16.286;2023-05-10T11:59:29;19.40;40.20
11597;DHT22;5854;48.072;16.286;2023-05-10T12:01:56;19.40;39.60
11597;DHT22;5854;48.072;16.286;2023-05-10T12:04:23;19.50;37.60
11597;DHT22;5854;48.072;16.286;2023-05-10T12:06:52;19.60;37.80
11597;DHT22;5854;48.072;16.286;2023-05-10T12:14:37;19.40;39.10
11597;DHT22;5854;48.072;16.286;2023-05-10T12:17:05;19.60;39.00
11597;DHT22;5854;48.072;16.286;2023-05-10T12:19:37;19.70;37.40
11597;DHT22;5854;48.072;16.286;2023-05-10T12:22:07;19.90;37.50
11597;DHT22;5854;48.072;16.286;2023-05-10T12:24:36;19.80;37.30
11597;DHT22;5854;48.072;16.286;2023-05-10T12:27:09;19.60;37.00
11597;DHT22;5854;48.072;16.286;2023-05-10T12:29:41;19.60;36.30
11597;DHT22;5854;48.072;16.286;2023-05-10T12:32:10;20.10;36.80
11597;DHT22;5854;48.072;16.286;2023-05-10T12:34:37;20.60;35.50
11597;DHT22;5854;48.072;16.286;2023-05-10T12:37:06;21.00;35.90
11597;DHT22;5854;48.072;16.286;2023-05-10T12:39:40;21.60;35.20
11597;DHT22;5854;48.072;16.286;2023-05-10T12:42:08;22.70;31.60
11597;DHT22;5854;48.072;16.286;2023-05-10T12:44:35;23.40;32.20
11597;DHT22;5854;48.072;16.286;2023-05-10T12:47:02;24.00;30.60
11597;DHT22;5854;48.072;16.286;2023-05-10T12:49:29;23.90;28.70
11597;DHT22;5854;48.072;16.286;2023-05-10T12:51:56;24.10;30.90
11597;DHT22;5854;48.072;16.286;2023-05-10T12:54:25;24.50;28.90
11597;DHT22;5854;48.072;16.286;2023-05-10T12:56:53;24.20;27.60
11597;DHT22;5854;48.072;16.286;2023-05-10T12:59:22;24.10;27.40
11597;DHT22;5854;48.072;16.286;2023-05-10T13:01:49;24.10;29.20
11597;DHT22;5854;48.072;16.286;2023-05-10T13:04:16;24.20;28.90
11597;DHT22;5854;48.072;16.286;2023-05-10T13:06:44;23.30;26.80
11597;DHT22;5854;48.072;16.286;2023-05-10T13:09:11;22.00;29.90
11597;DHT22;5854;48.072;16.286;2023-05-10T13:11:39;22.40;31.80
11597;DHT22;5854;48.072;16.286;2023-05-10T13:14:06;22.00;31.50
11597;DHT22;5854;48.072;16.286;2023-05-10T13:16:34;22.30;30.00
11597;DHT22;5854;48.072;16.286;2023-05-10T13:19:01;22.90;31.70
11597;DHT22;5854;48.072;16.286;2023-05-10T13:21:28;23.00;29.10
11597;DHT22;5854;48.072;16.286;2023-05-10T13:23:56;21.70;33.20
11597;DHT22;5854;48.072;16.286;2023-05-10T13:26:23;22.00;33.10
11597;DHT22;5854;48.072;16.286;2023-05-10T13:28:52;22.70;33.30
11597;DHT22;5854;48.072;16.286;2023-05-10T13:31:21;22.80;31.90
11597;DHT22;5854;48.072;16.286;2023-05-10T13:33:48;21.90;31.10
11597;DHT22;5854;48.072;16.286;2023-05-10T13:36:15;22.00;32.20
11597;DHT22;5854;48.072;16.286;2023-05-10T13:38:42;22.20;33.90
11597;DHT22;5854;48.072;16.286;2023-05-10T13:41:10;21.70;35.30
11597;DHT22;5854;48.072;16.286;2023-05-10T13:59:03;20.70;34.70
11597;DHT22;5854;48.072;16.286;2023-05-10T14:01:33;20.90;36.30
11597;DHT22;5854;48.072;16.286;2023-05-10T14:04:03;20.80;32.50
11597;DHT22;5854;48.072;16.286;2023-05-10T14:11:33;21.00;36.90
11597;DHT22;5854;48.072;16.286;2023-05-10T14:32:20;20.40;34.00
11597;DHT22;5854;48.072;16.286;2023-05-10T14:34:47;20.50;33.60
11597;DHT22;5854;48.072;16.286;2023-05-10T14:37:14;20.70;31.90
11597;DHT22;5854;48.072;16.286;2023-05-10T14:44:56;20.50;30.90
11597;DHT22;5854;48.072;16.286;2023-05-10T14:47:27;20.50;36.20
11597;DHT22;5854;48.072;16.286;2023-05-10T14:49:55;20.40;36.60
11597;DHT22;5854;48.072;16.286;2023-05-10T14:52:23;20.10;35.50
11597;DHT22;5854;48.072;16.286;2023-05-10T14:57:26;20.60;35.00
11597;DHT22;5854;48.072;16.286;2023-05-10T15:05:32;20.60;32.00
11597;DHT22;5854;48.072;16.286;2023-05-10T15:08:03;20.20;32.50
11597;DHT22;5854;48.072;16.286;2023-05-10T15:10:33;20.30;32.20
11597;DHT22;5854;48.072;16.286;2023-05-10T15:13:00;20.50;32.80
11597;DHT22;5854;48.072;16.286;2023-05-10T15:15:27;20.70;33.10
11597;DHT22;5854;48.072;16.286;2023-05-10T15:17:55;20.50;32.20
11597;DHT22;5854;48.072;16.286;2023-05-10T15:20:22;20.30;32.40
11597;DHT22;5854;48.072;16.286;2023-05-10T15:22:52;20.20;33.20
11597;DHT22;5854;48.072;16.286;2023-05-10T15:25:20;20.00;34.60
11597;DHT22;5854;48.072;16.286;2023-05-10T15:27:50;19.80;37.00
11597;DHT22;5854;48.072;16.286;2023-05-10T15:30:17;19.80;36.90
11597;DHT22;5854;48.072;16.286;2023-05-10T15:32:44;19.80;36.40
11597;DHT22;5854;48.072;16.286;2023-05-10T15:35:11;19.90;36.30
11597;DHT22;5854;48.072;16.286;2023-05-10T15:37:38;19.90;34.20
11597;DHT22;5854;48.072;16.286;2023-05-10T15:40:10;19.80;35.10
11597;DHT22;5854;48.072;16.286;2023-05-10T15:42:39;20.00;39.50
11597;DHT22;5854;48.072;16.286;2023-05-10T15:45:08;20.10;34.50
11597;DHT22;5854;48.072;16.286;2023-05-10T15:47:39;20.00;33.70
11597;DHT22;5854;48.072;16.286;2023-05-10T15:50:36;19.80;34.40
11597;DHT22;5854;48.072;16.286;2023-05-10T15:53:05;19.90;34.40
11597;DHT22;5854;48.072;16.286;2023-05-10T15:55:34;19.80;38.60
11597;DHT22;5854;48.072;16.286;2023-05-10T15:58:01;20.00;35.70
11597;DHT22;5854;48.072;16.286;2023-05-10T16:00:28;19.80;35.20
11597;DHT22;5854;48.072;16.286;2023-05-10T16:02:55;19.40;36.40
11597;DHT22;5854;48.072;16.286;2023-05-10T16:08:01;19.40;36.80
11597;DHT22;5854;48.072;16.286;2023-05-10T16:10:30;19.40;37.50
11597;DHT22;5854;48.072;16.286;2023-05-10T16:12:59;19.50;38.80
11597;DHT22;5854;48.072;16.286;2023-05-10T16:15:28;19.60;39.60
11597;DHT22;5854;48.072;16.286;2023-05-10T16:17:56;19.80;36.80
11597;DHT22;5854;48.072;16.286;2023-05-10T16:20:23;20.20;41.00
11597;DHT22;5854;48.072;16.286;2023-05-10T16:22:50;20.40;36.60
11597;DHT22;5854;48.072;16.286;2023-05-10T16:25:18;19.90;37.30
11597;DHT22;5854;48.072;16.286;2023-05-10T16:27:45;20.00;36.20
11597;DHT22;5854;48.072;16.286;2023-05-10T16:30:13;19.70;34.20
11597;DHT22;5854;48.072;16.286;2023-05-10T16:32:40;19.40;38.50
11597;DHT22;5854;48.072;16.286;2023-05-10T16:35:08;19.30;40.10
11597;DHT22;5854;48.072;16.286;2023-05-10T16:37:35;19.60;34.90
11597;DHT22;5854;48.072;16.286;2023-05-10T16:40:04;19.40;36.50
11597;DHT22;5854;48.072;16.286;2023-05-10T16:42:44;19.40;38.90
11597;DHT22;5854;48.072;16.286;2023-05-10T16:45:31;19.40;35.70
11597;DHT22;5854;48.072;16.286;2023-05-10T16:47:59;19.60;37.10
11597;DHT22;5854;48.072;16.286;2023-05-10T16:53:02;19.90;35.50
11597;DHT22;5854;48.072;16.286;2023-05-10T16:55:30;19.70;36.20
11597;DHT22;5854;48.072;16.286;2023-05-10T16:57:59;19.70;34.90
11597;DHT22;5854;48.072;16.286;2023-05-10T17:00:28;19.80;37.50
11597;DHT22;5854;48.072;16.286;2023-05-10T17:03:19;19.90;38.10
11597;DHT22;5854;48.072;16.286;2023-05-10T17:05:47;19.70;34.70
11597;DHT22;5854;48.072;16.286;2023-05-10T17:08:14;19.60;36.50
11597;DHT22;5854;48.072;16.286;2023-05-10T17:10:41;19.60;35.60
11597;DHT22;5854;48.072;16.286;2023-05-10T17:13:09;19.60;35.40
11597;DHT22;5854;48.072;16.286;2023-05-10T17:15:37;19.80;40.00
11597;DHT22;5854;48.072;16.286;2023-05-10T17:18:05;19.90;39.60
11597;DHT22;5854;48.072;16.286;2023-05-10T17:20:33;19.60;38.20
11597;DHT22;5854;48.072;16.286;2023-05-10T17:23:00;19.70;39.90
11597;DHT22;5854;48.072;16.286;2023-05-10T17:25:28;19.70;39.80
11597;DHT22;5854;48.072;16.286;2023-05-10T17:27:55;19.50;38.20
11597;DHT22;5854;48.072;16.286;2023-05-10T17:30:23;19.30;37.50
11597;DHT22;5854;48.072;16.286;2023-05-10T17:32:51;19.40;38.30
11597;DHT22;5854;48.072;16.286;2023-05-10T17:35:19;19.60;38.80
11597;DHT22;5854;48.072;16.286;2023-05-10T17:37:47;19.60;39.90
11597;DHT22;5854;48.072;16.286;2023-05-10T17:40:15;19.50;38.10
11597;DHT22;5854;48.072;16.286;2023-05-10T17:42:43;19.40;39.60
11597;DHT22;5854;48.072;16.286;2023-05-10T17:45:13;19.50;39.00
11597;DHT22;5854;48.072;16.286;2023-05-10T17:52:49;19.20;39.60
11597;DHT22;5854;48.072;16.286;2023-05-10T17:55:23;19.40;39.20
11597;DHT22;5854;48.072;16.286;2023-05-10T17:57:58;19.10;40.50
11597;DHT22;5854;48.072;16.286;2023-05-10T18:00:26;19.20;42.20
11597;DHT22;5854;48.072;16.286;2023-05-10T18:02:53;19.10;38.60
11597;DHT22;5854;48.072;16.286;2023-05-10T18:05:20;19.10;38.00
11597;DHT22;5854;48.072;16.286;2023-05-10T18:07:49;19.30;42.60
11597;DHT22;5854;48.072;16.286;2023-05-10T18:10:16;19.30;40.60
11597;DHT22;5854;48.072;16.286;2023-05-10T18:12:43;19.20;40.00
11597;DHT22;5854;48.072;16.286;2023-05-10T18:15:10;19.00;40.20
11597;DHT22;5854;48.072;16.286;2023-05-10T18:17:38;19.10;41.30
11597;DHT22;5854;48.072;16.286;2023-05-10T18:20:06;19.20;40.70
11597;DHT22;5854;48.072;16.286;2023-05-10T18:22:34;19.40;38.20
11597;DHT22;5854;48.072;16.286;2023-05-10T18:25:03;19.40;39.60
11597;DHT22;5854;48.072;16.286;2023-05-10T18:27:31;19.30;40.50
11597;DHT22;5854;48.072;16.286;2023-05-10T18:29:58;19.10;39.90
11597;DHT22;5854;48.072;16.286;2023-05-10T18:32:25;19.20;41.80
11597;DHT22;5854;48.072;16.286;2023-05-10T18:34:53;19.20;40.60
11597;DHT22;5854;48.072;16.286;2023-05-10T18:37:21;19.20;41.10
11597;DHT22;5854;48.072;16.286;2023-05-10T18:39:48;19.30;41.70
11597;DHT22;5854;48.072;16.286;2023-05-10T18:42:17;19.40;39.50
11597;DHT22;5854;48.072;16.286;2023-05-10T18:44:44;19.40;40.90
11597;DHT22;5854;48.072;16.286;2023-05-10T18:47:11;19.40;41.60
11597;DHT22;5854;48.072;16.286;2023-05-10T18:49:39;19.40;42.20
11597;DHT22;5854;48.072;16.286;2023-05-10T18:52:06;19.40;43.10
11597;DHT22;5854;48.072;16.286;2023-05-10T18:54:33;19.50;42.50
11597;DHT22;5854;48.072;16.286;2023-05-10T18:57:01;19.50;43.10
11597;DHT22;5854;48.072;16.286;2023-05-10T18:59:29;19.40;43.60
11597;DHT22;5854;48.072;16.286;2023-05-10T19:01:56;19.40;43.80
11597;DHT22;5854;48.072;16.286;2023-05-10T19:04:23;19.30;41.20
11597;DHT22;5854;48.072;16.286;2023-05-10T19:06:54;19.30;41.10
11597;DHT22;5854;48.072;16.286;2023-05-10T19:09:25;19.30;44.00
11597;DHT22;5854;48.072;16.286;2023-05-10T19:14:34;19.20;42.20
11597;DHT22;5854;48.072;16.286;2023-05-10T19:17:02;19.00;44.00
11597;DHT22;5854;48.072;16.286;2023-05-10T19:22:06;19.00;43.60
11597;DHT22;5854;48.072;16.286;2023-05-10T19:24:33;19.10;43.40
11597;DHT22;5854;48.072;16.286;2023-05-10T19:27:10;19.10;44.20
11597;DHT22;5854;48.072;16.286;2023-05-10T19:29:40;19.00;43.40
11597;DHT22;5854;48.072;16.286;2023-05-10T19:32:10;19.00;44.00
11597;DHT22;5854;48.072;16.286;2023-05-10T20:00:10;18.80;41.50
11597;DHT22;5854;48.072;16.286;2023-05-10T20:07:41;18.40;42.80
11597;DHT22;5854;48.072;16.286;2023-05-10T20:10:12;18.50;44.50
11597;DHT22;5854;48.072;16.286;2023-05-10T20:12:51;18.50;45.50
11597;DHT22;5854;48.072;16.286;2023-05-10T20:16:29;18.60;42.10
11597;DHT22;5854;48.072;16.286;2023-05-10T20:19:33;18.60;45.10
11597;DHT22;5854;48.072;16.286;2023-05-10T20:26:43;18.60;44.30
11597;DHT22;5854;48.072;16.286;2023-05-10T20:29:26;18.60;44.40
11597;DHT22;5854;48.072;16.286;2023-05-10T20:31:59;18.60;44.80
11597;DHT22;5854;48.072;16.286;2023-05-10T20:34:28;18.60;43.30
11597;DHT22;5854;48.072;16.286;2023-05-10T20:42:19;18.40;44.40
11597;DHT22;5854;48.072;16.286;2023-05-10T20:44:58;18.40;45.20
11597;DHT22;5854;48.072;16.286;2023-05-10T20:47:42;18.30;45.30
11597;DHT22;5854;48.072;16.286;2023-05-10T20:50:16;18.30;44.90
11597;DHT22;5854;48.072;16.286;2023-05-10T20:53:05;18.30;45.00
11597;DHT22;5854;48.072;16.286;2023-05-10T20:55:39;18.10;45.40
11597;DHT22;5854;48.072;16.286;2023-05-10T20:58:11;18.20;46.60
11597;DHT22;5854;48.072;16.286;2023-05-10T21:00:42;18.30;45.70
11597;DHT22;5854;48.072;16.286;2023-05-10T21:03:13;18.20;45.50
11597;DHT22;5854;48.072;16.286;2023-05-10T21:05:45;18.20;45.20
11597;DHT22;5854;48.072;16.286;2023-05-10T21:16:30;18.20;46.20
11597;DHT22;5854;48.072;16.286;2023-05-10T21:19:02;18.20;44.50
11597;DHT22;5854;48.072;16.286;2023-05-10T21:21:33;18.20;45.70
11597;DHT22;5854;48.072;16.286;2023-05-10T21:24:02;18.10;44.90
11597;DHT22;5854;48.072;16.286;2023-05-10T21:26:34;18.10;45.70
11597;DHT22;5854;48.072;16.286;2023-05-10T21:29:02;18.10;46.80
11597;DHT22;5854;48.072;16.286;2023-05-10T21:31:31;18.10;46.30
11597;DHT22;5854;48.072;16.286;2023-05-10T21:34:00;18.00;45.90
11597;DHT22;5854;48.072;16.286;2023-05-10T21:36:27;18.00;46.40
11597;DHT22;5854;48.072;16.286;2023-05-10T21:38:55;18.10;45.40
11597;DHT22;5854;48.072;16.286;2023-05-10T21:41:25;18.00;46.40
11597;DHT22;5854;48.072;16.286;2023-05-10T21:43:54;18.00;46.50
11597;DHT22;5854;48.072;16.286;2023-05-10T21:46:22;18.10;46.20
11597;DHT22;5854;48.072;16.286;2023-05-10T21:48:57;18.10;45.80